Terminal Aerodrome Forecast
Issued by NWS

Home | Current Version | Previous Version | Text Only | Print | Product List | Glossary On
Versions: 1 2 3 4 5 6 7 8 9 10 11 12 13 14 15 16 17 18 19 20 21 22 23 24 25 26 27 28 29 30 31 32
000
FTAK31 PAFA 261729
TAFAUN
TAF
PAUN 261729Z 2618/2718 VRB04KT P6SM OVC008
      TEMPO 2621/2623 SCT008
     FM262300 VRB04KT P6SM FEW008 SCT200
     FM270900 07007KT P6SM SCT025 BKN100=

USA.gov is the U.S. government's official web portal to all federal, state and local government web resources and services.